sensor_id;sensor_type;location;lat;lon;timestamp;P1;durP1;ratioP1;P2;durP2;ratioP2
10491;SDS011;5293;51.464;-2.566;2022-12-18T00:00:32;41.03;;;21.47;;
10491;SDS011;5293;51.464;-2.566;2022-12-18T00:03:00;45.67;;;22.13;;
10491;SDS011;5293;51.464;-2.566;2022-12-18T00:05:25;43.27;;;23.43;;
10491;SDS011;5293;51.464;-2.566;2022-12-18T00:07:54;47.77;;;24.50;;
10491;SDS011;5293;51.464;-2.566;2022-12-18T00:10:20;48.23;;;24.50;;
10491;SDS011;5293;51.464;-2.566;2022-12-18T00:12:45;43.83;;;23.30;;
10491;SDS011;5293;51.464;-2.566;2022-12-18T00:15:11;41.00;;;23.73;;
10491;SDS011;5293;51.464;-2.566;2022-12-18T00:17:37;45.00;;;22.67;;
10491;SDS011;5293;51.464;-2.566;2022-12-18T00:20:02;40.13;;;22.90;;
10491;SDS011;5293;51.464;-2.566;2022-12-18T00:22:28;37.13;;;20.80;;
10491;SDS011;5293;51.464;-2.566;2022-12-18T00:24:54;34.97;;;19.93;;
10491;SDS011;5293;51.464;-2.566;2022-12-18T00:27:19;41.03;;;19.53;;
10491;SDS011;5293;51.464;-2.566;2022-12-18T00:29:45;35.30;;;18.13;;
10491;SDS011;5293;51.464;-2.566;2022-12-18T00:32:11;36.13;;;18.03;;
10491;SDS011;5293;51.464;-2.566;2022-12-18T00:34:36;34.00;;;18.30;;
10491;SDS011;5293;51.464;-2.566;2022-12-18T00:37:02;26.83;;;13.53;;
10491;SDS011;5293;51.464;-2.566;2022-12-18T00:39:28;30.70;;;15.10;;
10491;SDS011;5293;51.464;-2.566;2022-12-18T00:41:53;24.33;;;13.33;;
10491;SDS011;5293;51.464;-2.566;2022-12-18T00:44:57;22.23;;;11.73;;
10491;SDS011;5293;51.464;-2.566;2022-12-18T00:47:23;20.17;;;12.70;;
10491;SDS011;5293;51.464;-2.566;2022-12-18T00:49:48;16.93;;;10.00;;
10491;SDS011;5293;51.464;-2.566;2022-12-18T00:52:14;18.47;;;10.07;;
10491;SDS011;5293;51.464;-2.566;2022-12-18T00:54:40;17.30;;;10.57;;
10491;SDS011;5293;51.464;-2.566;2022-12-18T00:57:05;19.63;;;10.60;;
10491;SDS011;5293;51.464;-2.566;2022-12-18T00:59:31;14.23;;;8.83;;
10491;SDS011;5293;51.464;-2.566;2022-12-18T01:01:56;16.90;;;9.90;;
10491;SDS011;5293;51.464;-2.566;2022-12-18T01:04:22;19.73;;;10.87;;
10491;SDS011;5293;51.464;-2.566;2022-12-18T01:06:48;23.47;;;13.27;;
10491;SDS011;5293;51.464;-2.566;2022-12-18T01:09:13;31.17;;;16.63;;
10491;SDS011;5293;51.464;-2.566;2022-12-18T01:11:39;23.07;;;13.93;;
10491;SDS011;5293;51.464;-2.566;2022-12-18T01:14:05;27.47;;;14.40;;
10491;SDS011;5293;51.464;-2.566;2022-12-18T01:16:31;31.97;;;15.23;;
10491;SDS011;5293;51.464;-2.566;2022-12-18T01:18:56;23.17;;;14.07;;
10491;SDS011;5293;51.464;-2.566;2022-12-18T01:21:22;24.73;;;14.03;;
10491;SDS011;5293;51.464;-2.566;2022-12-18T01:23:55;22.83;;;13.77;;
10491;SDS011;5293;51.464;-2.566;2022-12-18T01:26:21;24.40;;;14.73;;
10491;SDS011;5293;51.464;-2.566;2022-12-18T01:28:47;25.03;;;13.47;;
10491;SDS011;5293;51.464;-2.566;2022-12-18T01:31:17;26.40;;;14.37;;
10491;SDS011;5293;51.464;-2.566;2022-12-18T01:33:48;20.43;;;12.20;;
10491;SDS011;5293;51.464;-2.566;2022-12-18T01:36:34;20.83;;;12.53;;
10491;SDS011;5293;51.464;-2.566;2022-12-18T01:39:03;22.33;;;13.00;;
10491;SDS011;5293;51.464;-2.566;2022-12-18T01:41:32;22.23;;;12.60;;
10491;SDS011;5293;51.464;-2.566;2022-12-18T01:47:27;22.57;;;13.00;;
10491;SDS011;5293;51.464;-2.566;2022-12-18T01:50:10;21.47;;;12.27;;
10491;SDS011;5293;51.464;-2.566;2022-12-18T01:52:41;28.40;;;14.57;;
10491;SDS011;5293;51.464;-2.566;2022-12-18T01:55:09;29.30;;;15.73;;
10491;SDS011;5293;51.464;-2.566;2022-12-18T01:57:36;26.80;;;15.43;;
10491;SDS011;5293;51.464;-2.566;2022-12-18T02:00:10;32.43;;;17.30;;
10491;SDS011;5293;51.464;-2.566;2022-12-18T02:02:39;30.57;;;16.30;;
10491;SDS011;5293;51.464;-2.566;2022-12-18T02:05:07;30.43;;;17.60;;
10491;SDS011;5293;51.464;-2.566;2022-12-18T02:13:14;29.50;;;17.07;;
10491;SDS011;5293;51.464;-2.566;2022-12-18T02:18:56;32.50;;;16.33;;
10491;SDS011;5293;51.464;-2.566;2022-12-18T02:26:56;24.37;;;14.50;;
10491;SDS011;5293;51.464;-2.566;2022-12-18T02:29:26;27.87;;;14.97;;
10491;SDS011;5293;51.464;-2.566;2022-12-18T02:31:57;28.53;;;15.63;;
10491;SDS011;5293;51.464;-2.566;2022-12-18T02:34:28;22.90;;;14.10;;
10491;SDS011;5293;51.464;-2.566;2022-12-18T02:36:56;22.40;;;13.57;;
10491;SDS011;5293;51.464;-2.566;2022-12-18T02:39:25;22.20;;;14.13;;
10491;SDS011;5293;51.464;-2.566;2022-12-18T02:41:52;25.00;;;14.47;;
10491;SDS011;5293;51.464;-2.566;2022-12-18T02:44:18;24.30;;;13.00;;
10491;SDS011;5293;51.464;-2.566;2022-12-18T02:46:45;25.20;;;13.73;;
10491;SDS011;5293;51.464;-2.566;2022-12-18T02:51:50;28.70;;;14.07;;
10491;SDS011;5293;51.464;-2.566;2022-12-18T02:57:31;26.97;;;13.67;;
10491;SDS011;5293;51.464;-2.566;2022-12-18T03:00:08;25.47;;;13.70;;
10491;SDS011;5293;51.464;-2.566;2022-12-18T03:02:53;26.80;;;14.40;;
10491;SDS011;5293;51.464;-2.566;2022-12-18T03:05:22;26.37;;;13.80;;
10491;SDS011;5293;51.464;-2.566;2022-12-18T03:07:57;26.23;;;14.73;;
10491;SDS011;5293;51.464;-2.566;2022-12-18T03:10:36;27.10;;;14.43;;
10491;SDS011;5293;51.464;-2.566;2022-12-18T03:13:08;23.10;;;12.03;;
10491;SDS011;5293;51.464;-2.566;2022-12-18T03:15:42;25.87;;;12.97;;
10491;SDS011;5293;51.464;-2.566;2022-12-18T03:18:14;21.27;;;12.77;;
10491;SDS011;5293;51.464;-2.566;2022-12-18T03:20:44;23.53;;;12.90;;
10491;SDS011;5293;51.464;-2.566;2022-12-18T03:23:17;21.67;;;13.17;;
10491;SDS011;5293;51.464;-2.566;2022-12-18T03:25:47;23.83;;;13.07;;
10491;SDS011;5293;51.464;-2.566;2022-12-18T03:28:19;19.73;;;12.10;;
10491;SDS011;5293;51.464;-2.566;2022-12-18T03:30:47;20.33;;;8.93;;
10491;SDS011;5293;51.464;-2.566;2022-12-18T03:33:17;13.43;;;7.40;;
10491;SDS011;5293;51.464;-2.566;2022-12-18T03:35:49;13.73;;;7.57;;
10491;SDS011;5293;51.464;-2.566;2022-12-18T03:38:15;12.33;;;6.87;;
10491;SDS011;5293;51.464;-2.566;2022-12-18T03:40:55;15.13;;;7.23;;
10491;SDS011;5293;51.464;-2.566;2022-12-18T03:43:49;14.40;;;7.53;;
10491;SDS011;5293;51.464;-2.566;2022-12-18T03:46:43;14.57;;;6.37;;
10491;SDS011;5293;51.464;-2.566;2022-12-18T03:49:23;12.83;;;7.47;;
10491;SDS011;5293;51.464;-2.566;2022-12-18T03:52:04;11.23;;;6.90;;
10491;SDS011;5293;51.464;-2.566;2022-12-18T03:54:35;11.43;;;7.00;;
10491;SDS011;5293;51.464;-2.566;2022-12-18T03:57:04;14.63;;;7.47;;
10491;SDS011;5293;51.464;-2.566;2022-12-18T03:59:34;11.40;;;6.73;;
10491;SDS011;5293;51.464;-2.566;2022-12-18T04:02:01;15.43;;;8.17;;
10491;SDS011;5293;51.464;-2.566;2022-12-18T04:04:29;14.27;;;7.30;;
10491;SDS011;5293;51.464;-2.566;2022-12-18T04:06:56;18.27;;;7.63;;
10491;SDS011;5293;51.464;-2.566;2022-12-18T04:09:23;11.63;;;7.23;;
10491;SDS011;5293;51.464;-2.566;2022-12-18T04:11:51;15.43;;;7.17;;
10491;SDS011;5293;51.464;-2.566;2022-12-18T04:14:17;13.00;;;7.70;;
10491;SDS011;5293;51.464;-2.566;2022-12-18T04:16:43;13.10;;;8.10;;
10491;SDS011;5293;51.464;-2.566;2022-12-18T04:19:08;15.57;;;8.20;;
10491;SDS011;5293;51.464;-2.566;2022-12-18T04:21:34;13.00;;;8.13;;
10491;SDS011;5293;51.464;-2.566;2022-12-18T04:23:59;15.13;;;8.20;;
10491;SDS011;5293;51.464;-2.566;2022-12-18T04:26:25;16.87;;;8.70;;
10491;SDS011;5293;51.464;-2.566;2022-12-18T04:28:51;19.70;;;9.30;;
10491;SDS011;5293;51.464;-2.566;2022-12-18T04:31:16;18.00;;;8.83;;
10491;SDS011;5293;51.464;-2.566;2022-12-18T04:33:42;17.30;;;8.87;;
10491;SDS011;5293;51.464;-2.566;2022-12-18T04:36:08;17.33;;;9.40;;
10491;SDS011;5293;51.464;-2.566;2022-12-18T04:38:33;15.33;;;9.20;;
10491;SDS011;5293;51.464;-2.566;2022-12-18T04:40:59;18.60;;;9.23;;
10491;SDS011;5293;51.464;-2.566;2022-12-18T04:43:25;18.07;;;9.93;;
10491;SDS011;5293;51.464;-2.566;2022-12-18T04:45:50;17.17;;;8.90;;
10491;SDS011;5293;51.464;-2.566;2022-12-18T04:48:16;17.53;;;9.87;;
10491;SDS011;5293;51.464;-2.566;2022-12-18T04:50:42;17.53;;;9.23;;
10491;SDS011;5293;51.464;-2.566;2022-12-18T04:53:07;18.50;;;9.67;;
10491;SDS011;5293;51.464;-2.566;2022-12-18T04:55:33;17.17;;;8.60;;
10491;SDS011;5293;51.464;-2.566;2022-12-18T04:57:59;14.70;;;8.93;;
10491;SDS011;5293;51.464;-2.566;2022-12-18T05:00:24;16.37;;;9.07;;
10491;SDS011;5293;51.464;-2.566;2022-12-18T05:02:50;21.43;;;10.07;;
10491;SDS011;5293;51.464;-2.566;2022-12-18T05:05:15;17.10;;;9.40;;
10491;SDS011;5293;51.464;-2.566;2022-12-18T05:07:41;18.63;;;10.57;;
10491;SDS011;5293;51.464;-2.566;2022-12-18T05:10:07;18.07;;;9.83;;
10491;SDS011;5293;51.464;-2.566;2022-12-18T05:12:33;17.57;;;10.33;;
10491;SDS011;5293;51.464;-2.566;2022-12-18T05:15:19;18.27;;;9.87;;
10491;SDS011;5293;51.464;-2.566;2022-12-18T05:17:44;19.10;;;10.67;;
10491;SDS011;5293;51.464;-2.566;2022-12-18T05:20:10;18.33;;;10.53;;
10491;SDS011;5293;51.464;-2.566;2022-12-18T05:22:35;19.27;;;10.60;;
10491;SDS011;5293;51.464;-2.566;2022-12-18T05:25:01;21.33;;;11.17;;
10491;SDS011;5293;51.464;-2.566;2022-12-18T05:27:27;20.53;;;10.57;;
10491;SDS011;5293;51.464;-2.566;2022-12-18T05:29:52;21.83;;;10.37;;
10491;SDS011;5293;51.464;-2.566;2022-12-18T05:32:18;20.93;;;10.23;;
10491;SDS011;5293;51.464;-2.566;2022-12-18T05:34:44;24.40;;;10.60;;
10491;SDS011;5293;51.464;-2.566;2022-12-18T05:37:09;21.27;;;10.77;;
10491;SDS011;5293;51.464;-2.566;2022-12-18T05:39:35;20.53;;;10.70;;
10491;SDS011;5293;51.464;-2.566;2022-12-18T05:42:00;21.17;;;10.57;;
10491;SDS011;5293;51.464;-2.566;2022-12-18T05:44:26;17.80;;;9.93;;
10491;SDS011;5293;51.464;-2.566;2022-12-18T05:46:52;22.40;;;11.67;;
10491;SDS011;5293;51.464;-2.566;2022-12-18T05:49:17;19.63;;;10.83;;
10491;SDS011;5293;51.464;-2.566;2022-12-18T05:51:43;22.27;;;11.30;;
10491;SDS011;5293;51.464;-2.566;2022-12-18T05:54:08;24.37;;;11.53;;
10491;SDS011;5293;51.464;-2.566;2022-12-18T05:56:34;19.37;;;10.70;;
10491;SDS011;5293;51.464;-2.566;2022-12-18T05:59:00;17.97;;;10.40;;
10491;SDS011;5293;51.464;-2.566;2022-12-18T06:01:26;19.03;;;10.50;;
10491;SDS011;5293;51.464;-2.566;2022-12-18T06:03:52;23.87;;;11.50;;
10491;SDS011;5293;51.464;-2.566;2022-12-18T06:08:54;20.80;;;11.13;;
10491;SDS011;5293;51.464;-2.566;2022-12-18T06:11:22;22.07;;;11.53;;
10491;SDS011;5293;51.464;-2.566;2022-12-18T06:13:53;23.93;;;11.70;;
10491;SDS011;5293;51.464;-2.566;2022-12-18T06:16:20;25.07;;;12.30;;
10491;SDS011;5293;51.464;-2.566;2022-12-18T06:18:46;25.27;;;12.10;;
10491;SDS011;5293;51.464;-2.566;2022-12-18T06:21:12;22.10;;;12.43;;
10491;SDS011;5293;51.464;-2.566;2022-12-18T06:23:38;22.10;;;11.80;;
10491;SDS011;5293;51.464;-2.566;2022-12-18T06:26:04;22.07;;;11.53;;
10491;SDS011;5293;51.464;-2.566;2022-12-18T06:28:31;24.10;;;13.13;;
10491;SDS011;5293;51.464;-2.566;2022-12-18T06:30:57;23.57;;;11.63;;
10491;SDS011;5293;51.464;-2.566;2022-12-18T06:33:25;22.93;;;11.60;;
10491;SDS011;5293;51.464;-2.566;2022-12-18T06:35:52;21.87;;;11.33;;
10491;SDS011;5293;51.464;-2.566;2022-12-18T06:38:17;20.93;;;11.63;;
10491;SDS011;5293;51.464;-2.566;2022-12-18T06:40:43;20.00;;;11.33;;
10491;SDS011;5293;51.464;-2.566;2022-12-18T06:43:08;22.93;;;11.90;;
10491;SDS011;5293;51.464;-2.566;2022-12-18T06:45:34;25.97;;;12.50;;
10491;SDS011;5293;51.464;-2.566;2022-12-18T06:48:00;29.30;;;13.47;;
10491;SDS011;5293;51.464;-2.566;2022-12-18T06:50:32;25.27;;;12.47;;
10491;SDS011;5293;51.464;-2.566;2022-12-18T06:52:57;20.53;;;11.43;;
10491;SDS011;5293;51.464;-2.566;2022-12-18T06:55:24;22.57;;;11.83;;
10491;SDS011;5293;51.464;-2.566;2022-12-18T06:57:49;24.27;;;11.83;;
10491;SDS011;5293;51.464;-2.566;2022-12-18T07:00:15;25.27;;;12.33;;
10491;SDS011;5293;51.464;-2.566;2022-12-18T07:02:41;24.27;;;13.23;;
10491;SDS011;5293;51.464;-2.566;2022-12-18T07:05:07;29.03;;;13.30;;
10491;SDS011;5293;51.464;-2.566;2022-12-18T07:07:33;22.07;;;12.53;;
10491;SDS011;5293;51.464;-2.566;2022-12-18T07:09:59;23.10;;;12.00;;
10491;SDS011;5293;51.464;-2.566;2022-12-18T07:12:26;21.13;;;12.17;;
10491;SDS011;5293;51.464;-2.566;2022-12-18T07:14:52;22.43;;;12.43;;
10491;SDS011;5293;51.464;-2.566;2022-12-18T07:17:18;24.07;;;12.37;;
10491;SDS011;5293;51.464;-2.566;2022-12-18T07:19:43;26.87;;;12.37;;
10491;SDS011;5293;51.464;-2.566;2022-12-18T07:22:09;23.10;;;12.20;;
10491;SDS011;5293;51.464;-2.566;2022-12-18T07:24:35;18.70;;;11.43;;
10491;SDS011;5293;51.464;-2.566;2022-12-18T07:27:00;27.90;;;13.63;;
10491;SDS011;5293;51.464;-2.566;2022-12-18T07:29:26;24.17;;;11.90;;
10491;SDS011;5293;51.464;-2.566;2022-12-18T07:31:51;25.27;;;12.40;;
10491;SDS011;5293;51.464;-2.566;2022-12-18T07:34:17;24.13;;;12.43;;
10491;SDS011;5293;51.464;-2.566;2022-12-18T07:36:43;20.67;;;11.87;;
10491;SDS011;5293;51.464;-2.566;2022-12-18T07:39:10;21.50;;;11.73;;
10491;SDS011;5293;51.464;-2.566;2022-12-18T07:41:36;22.93;;;12.57;;
10491;SDS011;5293;51.464;-2.566;2022-12-18T07:44:01;23.83;;;12.63;;
10491;SDS011;5293;51.464;-2.566;2022-12-18T07:46:27;24.27;;;11.17;;
10491;SDS011;5293;51.464;-2.566;2022-12-18T07:48:53;23.97;;;11.10;;
10491;SDS011;5293;51.464;-2.566;2022-12-18T07:51:18;25.30;;;13.07;;
10491;SDS011;5293;51.464;-2.566;2022-12-18T07:53:44;22.63;;;12.03;;
10491;SDS011;5293;51.464;-2.566;2022-12-18T07:56:11;21.93;;;10.93;;
10491;SDS011;5293;51.464;-2.566;2022-12-18T07:58:38;22.77;;;11.33;;
10491;SDS011;5293;51.464;-2.566;2022-12-18T08:01:05;20.77;;;10.50;;
10491;SDS011;5293;51.464;-2.566;2022-12-18T08:03:32;18.67;;;10.97;;
10491;SDS011;5293;51.464;-2.566;2022-12-18T08:05:58;21.50;;;10.93;;
10491;SDS011;5293;51.464;-2.566;2022-12-18T08:08:28;22.10;;;11.33;;
10491;SDS011;5293;51.464;-2.566;2022-12-18T08:10:54;21.00;;;11.53;;
10491;SDS011;5293;51.464;-2.566;2022-12-18T08:13:20;21.33;;;10.97;;
10491;SDS011;5293;51.464;-2.566;2022-12-18T08:15:46;20.97;;;10.47;;
10491;SDS011;5293;51.464;-2.566;2022-12-18T08:18:19;20.03;;;11.00;;
10491;SDS011;5293;51.464;-2.566;2022-12-18T08:20:45;19.43;;;10.83;;
10491;SDS011;5293;51.464;-2.566;2022-12-18T08:23:11;22.57;;;10.93;;
10491;SDS011;5293;51.464;-2.566;2022-12-18T08:25:36;23.97;;;11.17;;
10491;SDS011;5293;51.464;-2.566;2022-12-18T08:28:02;20.33;;;10.70;;
10491;SDS011;5293;51.464;-2.566;2022-12-18T08:30:28;21.13;;;11.03;;
10491;SDS011;5293;51.464;-2.566;2022-12-18T08:32:53;19.40;;;10.77;;
10491;SDS011;5293;51.464;-2.566;2022-12-18T08:35:19;16.20;;;9.73;;
10491;SDS011;5293;51.464;-2.566;2022-12-18T08:37:44;20.27;;;10.20;;
10491;SDS011;5293;51.464;-2.566;2022-12-18T08:40:10;21.17;;;10.53;;
10491;SDS011;5293;51.464;-2.566;2022-12-18T08:42:37;19.80;;;9.80;;
10491;SDS011;5293;51.464;-2.566;2022-12-18T08:45:21;18.57;;;10.40;;
10491;SDS011;5293;51.464;-2.566;2022-12-18T08:47:47;18.07;;;10.23;;
10491;SDS011;5293;51.464;-2.566;2022-12-18T08:50:13;24.00;;;10.63;;
10491;SDS011;5293;51.464;-2.566;2022-12-18T08:52:39;16.27;;;9.90;;
10491;SDS011;5293;51.464;-2.566;2022-12-18T08:55:05;16.33;;;9.33;;
10491;SDS011;5293;51.464;-2.566;2022-12-18T08:57:31;20.20;;;10.80;;
10491;SDS011;5293;51.464;-2.566;2022-12-18T08:59:57;19.13;;;10.17;;
10491;SDS011;5293;51.464;-2.566;2022-12-18T09:02:22;21.77;;;11.17;;
10491;SDS011;5293;51.464;-2.566;2022-12-18T09:04:48;20.00;;;9.87;;
10491;SDS011;5293;51.464;-2.566;2022-12-18T09:07:14;21.37;;;10.50;;
10491;SDS011;5293;51.464;-2.566;2022-12-18T09:09:39;18.83;;;9.70;;
10491;SDS011;5293;51.464;-2.566;2022-12-18T09:12:05;20.67;;;10.37;;
10491;SDS011;5293;51.464;-2.566;2022-12-18T09:14:31;15.50;;;9.57;;
10491;SDS011;5293;51.464;-2.566;2022-12-18T09:16:56;17.30;;;9.90;;
10491;SDS011;5293;51.464;-2.566;2022-12-18T09:19:22;22.90;;;10.67;;
10491;SDS011;5293;51.464;-2.566;2022-12-18T09:21:47;21.00;;;9.63;;
10491;SDS011;5293;51.464;-2.566;2022-12-18T09:24:13;16.63;;;8.93;;
10491;SDS011;5293;51.464;-2.566;2022-12-18T09:26:39;18.27;;;9.53;;
10491;SDS011;5293;51.464;-2.566;2022-12-18T09:29:05;15.93;;;9.33;;
10491;SDS011;5293;51.464;-2.566;2022-12-18T09:31:32;17.83;;;9.47;;
10491;SDS011;5293;51.464;-2.566;2022-12-18T09:33:58;18.63;;;9.43;;
10491;SDS011;5293;51.464;-2.566;2022-12-18T09:36:24;31.88;;;13.52;;
10491;SDS011;5293;51.464;-2.566;2022-12-18T09:38:50;19.60;;;10.77;;
10491;SDS011;5293;51.464;-2.566;2022-12-18T09:44:05;17.63;;;10.30;;
10491;SDS011;5293;51.464;-2.566;2022-12-18T09:47:35;20.53;;;9.97;;
10491;SDS011;5293;51.464;-2.566;2022-12-18T09:49:42;18.83;;;10.57;;
10491;SDS011;5293;51.464;-2.566;2022-12-18T09:52:27;19.23;;;9.57;;
10491;SDS011;5293;51.464;-2.566;2022-12-18T09:55:05;19.10;;;9.43;;
10491;SDS011;5293;51.464;-2.566;2022-12-18T09:57:51;22.13;;;11.23;;
10491;SDS011;5293;51.464;-2.566;2022-12-18T10:00:21;18.03;;;10.40;;
10491;SDS011;5293;51.464;-2.566;2022-12-18T10:02:48;15.23;;;8.80;;
10491;SDS011;5293;51.464;-2.566;2022-12-18T10:05:28;18.07;;;10.40;;
10491;SDS011;5293;51.464;-2.566;2022-12-18T10:08:24;19.50;;;10.40;;
10491;SDS011;5293;51.464;-2.566;2022-12-18T10:14:14;20.30;;;10.83;;
10491;SDS011;5293;51.464;-2.566;2022-12-18T10:28:15;19.07;;;10.50;;
10491;SDS011;5293;51.464;-2.566;2022-12-18T10:30:42;25.23;;;12.10;;
10491;SDS011;5293;51.464;-2.566;2022-12-18T10:33:12;23.57;;;12.13;;
10491;SDS011;5293;51.464;-2.566;2022-12-18T10:35:44;22.47;;;11.23;;
10491;SDS011;5293;51.464;-2.566;2022-12-18T10:51:16;28.83;;;14.43;;
10491;SDS011;5293;51.464;-2.566;2022-12-18T10:54:12;20.70;;;11.90;;
10491;SDS011;5293;51.464;-2.566;2022-12-18T10:56:40;27.13;;;15.85;;
10491;SDS011;5293;51.464;-2.566;2022-12-18T10:59:07;24.10;;;12.60;;
10491;SDS011;5293;51.464;-2.566;2022-12-18T11:01:51;27.27;;;12.53;;
10491;SDS011;5293;51.464;-2.566;2022-12-18T11:04:24;25.85;;;13.73;;
10491;SDS011;5293;51.464;-2.566;2022-12-18T11:09:22;21.93;;;11.97;;
10491;SDS011;5293;51.464;-2.566;2022-12-18T11:11:53;23.37;;;12.37;;
10491;SDS011;5293;51.464;-2.566;2022-12-18T11:16:50;20.83;;;12.17;;
10491;SDS011;5293;51.464;-2.566;2022-12-18T11:19:29;25.30;;;12.70;;
10491;SDS011;5293;51.464;-2.566;2022-12-18T11:22:00;22.67;;;12.53;;
10491;SDS011;5293;51.464;-2.566;2022-12-18T11:24:42;22.43;;;12.87;;
10491;SDS011;5293;51.464;-2.566;2022-12-18T11:27:16;28.53;;;12.97;;
10491;SDS011;5293;51.464;-2.566;2022-12-18T11:29:43;23.53;;;13.07;;
10491;SDS011;5293;51.464;-2.566;2022-12-18T11:37:29;25.40;;;14.33;;
10491;SDS011;5293;51.464;-2.566;2022-12-18T11:39:57;30.53;;;13.37;;
10491;SDS011;5293;51.464;-2.566;2022-12-18T11:45:02;27.03;;;12.97;;
10491;SDS011;5293;51.464;-2.566;2022-12-18T11:50:18;31.50;;;14.77;;
10491;SDS011;5293;51.464;-2.566;2022-12-18T11:52:47;26.03;;;13.47;;
10491;SDS011;5293;51.464;-2.566;2022-12-18T11:55:14;29.40;;;13.00;;
10491;SDS011;5293;51.464;-2.566;2022-12-18T12:05:45;24.83;;;13.88;;
10491;SDS011;5293;51.464;-2.566;2022-12-18T12:11:16;25.03;;;13.00;;
10491;SDS011;5293;51.464;-2.566;2022-12-18T12:16:37;22.27;;;11.97;;
10491;SDS011;5293;51.464;-2.566;2022-12-18T12:25:21;23.07;;;11.93;;
10491;SDS011;5293;51.464;-2.566;2022-12-18T12:33:51;21.20;;;10.47;;
10491;SDS011;5293;51.464;-2.566;2022-12-18T12:36:39;23.48;;;14.20;;
10491;SDS011;5293;51.464;-2.566;2022-12-18T12:39:13;19.73;;;10.73;;
10491;SDS011;5293;51.464;-2.566;2022-12-18T12:41:42;15.50;;;10.57;;
10491;SDS011;5293;51.464;-2.566;2022-12-18T12:44:31;16.30;;;9.23;;
10491;SDS011;5293;51.464;-2.566;2022-12-18T12:47:07;16.33;;;9.97;;
10491;SDS011;5293;51.464;-2.566;2022-12-18T12:49:40;16.27;;;9.43;;
10491;SDS011;5293;51.464;-2.566;2022-12-18T12:52:14;14.97;;;8.53;;
10491;SDS011;5293;51.464;-2.566;2022-12-18T12:55:02;184.90;;;29.30;;
10491;SDS011;5293;51.464;-2.566;2022-12-18T12:57:33;24.63;;;12.70;;
10491;SDS011;5293;51.464;-2.566;2022-12-18T13:00:07;115.20;;;36.60;;
10491;SDS011;5293;51.464;-2.566;2022-12-18T13:08:05;14.10;;;8.37;;
10491;SDS011;5293;51.464;-2.566;2022-12-18T13:10:41;14.00;;;7.93;;
10491;SDS011;5293;51.464;-2.566;2022-12-18T13:13:11;14.82;;;9.60;;
10491;SDS011;5293;51.464;-2.566;2022-12-18T13:18:17;47.40;;;11.07;;
10491;SDS011;5293;51.464;-2.566;2022-12-18T13:25:55;11.83;;;6.50;;
10491;SDS011;5293;51.464;-2.566;2022-12-18T13:34:25;9.30;;;6.27;;
10491;SDS011;5293;51.464;-2.566;2022-12-18T13:36:55;13.63;;;8.60;;
10491;SDS011;5293;51.464;-2.566;2022-12-18T13:39:39;12.60;;;6.17;;
10491;SDS011;5293;51.464;-2.566;2022-12-18T13:44:38;7.97;;;6.07;;
10491;SDS011;5293;51.464;-2.566;2022-12-18T13:50:10;7.37;;;4.77;;
10491;SDS011;5293;51.464;-2.566;2022-12-18T13:52:47;6.67;;;4.47;;
10491;SDS011;5293;51.464;-2.566;2022-12-18T13:55:18;5.80;;;4.63;;
10491;SDS011;5293;51.464;-2.566;2022-12-18T13:57:46;6.13;;;4.50;;
10491;SDS011;5293;51.464;-2.566;2022-12-18T14:00:33;7.93;;;4.23;;
10491;SDS011;5293;51.464;-2.566;2022-12-18T14:02:58;7.53;;;4.60;;
10491;SDS011;5293;51.464;-2.566;2022-12-18T14:08:10;6.30;;;4.90;;
10491;SDS011;5293;51.464;-2.566;2022-12-18T14:10:42;20.60;;;6.30;;
10491;SDS011;5293;51.464;-2.566;2022-12-18T14:13:10;6.83;;;4.63;;
10491;SDS011;5293;51.464;-2.566;2022-12-18T14:15:43;50.57;;;9.23;;
10491;SDS011;5293;51.464;-2.566;2022-12-18T14:20:46;6.57;;;4.20;;
10491;SDS011;5293;51.464;-2.566;2022-12-18T14:23:31;5.00;;;4.03;;
10491;SDS011;5293;51.464;-2.566;2022-12-18T14:25:59;3.93;;;3.03;;
10491;SDS011;5293;51.464;-2.566;2022-12-18T14:28:26;2.83;;;2.63;;
10491;SDS011;5293;51.464;-2.566;2022-12-18T14:30:52;4.80;;;3.20;;
10491;SDS011;5293;51.464;-2.566;2022-12-18T14:33:26;2.13;;;1.93;;
10491;SDS011;5293;51.464;-2.566;2022-12-18T14:35:56;2.47;;;1.60;;
10491;SDS011;5293;51.464;-2.566;2022-12-18T14:41:13;1.50;;;1.40;;
10491;SDS011;5293;51.464;-2.566;2022-12-18T14:43:42;1.97;;;1.80;;
10491;SDS011;5293;51.464;-2.566;2022-12-18T14:48:55;2.50;;;2.23;;
10491;SDS011;5293;51.464;-2.566;2022-12-18T14:51:22;2.40;;;2.00;;
10491;SDS011;5293;51.464;-2.566;2022-12-18T14:53:55;2.00;;;1.80;;
10491;SDS011;5293;51.464;-2.566;2022-12-18T14:56:30;1.60;;;1.50;;
10491;SDS011;5293;51.464;-2.566;2022-12-18T14:59:02;2.00;;;1.80;;
10491;SDS011;5293;51.464;-2.566;2022-12-18T15:01:34;2.23;;;1.80;;
10491;SDS011;5293;51.464;-2.566;2022-12-18T15:04:25;1.97;;;1.57;;
10491;SDS011;5293;51.464;-2.566;2022-12-18T15:07:08;2.03;;;1.57;;
10491;SDS011;5293;51.464;-2.566;2022-12-18T15:09:38;1.50;;;1.40;;
10491;SDS011;5293;51.464;-2.566;2022-12-18T15:12:15;1.87;;;1.77;;
10491;SDS011;5293;51.464;-2.566;2022-12-18T15:14:58;3.83;;;1.70;;
10491;SDS011;5293;51.464;-2.566;2022-12-18T15:17:23;1.53;;;1.43;;
10491;SDS011;5293;51.464;-2.566;2022-12-18T15:19:51;2.50;;;1.57;;
10491;SDS011;5293;51.464;-2.566;2022-12-18T15:22:19;2.90;;;1.80;;
10491;SDS011;5293;51.464;-2.566;2022-12-18T15:24:47;1.87;;;1.70;;
10491;SDS011;5293;51.464;-2.566;2022-12-18T15:32:38;2.10;;;1.60;;
10491;SDS011;5293;51.464;-2.566;2022-12-18T15:37:36;1.50;;;1.40;;
10491;SDS011;5293;51.464;-2.566;2022-12-18T15:40:06;1.63;;;1.50;;
10491;SDS011;5293;51.464;-2.566;2022-12-18T15:42:33;2.60;;;1.80;;
10491;SDS011;5293;51.464;-2.566;2022-12-18T15:45:17;3.33;;;1.77;;
10491;SDS011;5293;51.464;-2.566;2022-12-18T15:47:43;2.63;;;1.60;;
10491;SDS011;5293;51.464;-2.566;2022-12-18T15:50:09;2.63;;;1.20;;
10491;SDS011;5293;51.464;-2.566;2022-12-18T15:52:44;3.37;;;1.50;;
10491;SDS011;5293;51.464;-2.566;2022-12-18T15:55:16;1.77;;;1.50;;
10491;SDS011;5293;51.464;-2.566;2022-12-18T15:58:06;1.53;;;1.43;;
10491;SDS011;5293;51.464;-2.566;2022-12-18T16:00:33;2.30;;;1.57;;
10491;SDS011;5293;51.464;-2.566;2022-12-18T16:03:01;3.87;;;1.97;;
10491;SDS011;5293;51.464;-2.566;2022-12-18T16:05:28;6.27;;;2.20;;
10491;SDS011;5293;51.464;-2.566;2022-12-18T16:07:53;1.53;;;1.43;;
10491;SDS011;5293;51.464;-2.566;2022-12-18T16:10:19;1.87;;;1.77;;
10491;SDS011;5293;51.464;-2.566;2022-12-18T16:12:45;1.90;;;1.67;;
10491;SDS011;5293;51.464;-2.566;2022-12-18T16:15:14;1.60;;;1.50;;
10491;SDS011;5293;51.464;-2.566;2022-12-18T16:17:41;1.70;;;1.60;;
10491;SDS011;5293;51.464;-2.566;2022-12-18T16:20:14;1.93;;;1.70;;
10491;SDS011;5293;51.464;-2.566;2022-12-18T16:22:42;1.80;;;1.70;;
10491;SDS011;5293;51.464;-2.566;2022-12-18T16:25:30;3.90;;;2.10;;
10491;SDS011;5293;51.464;-2.566;2022-12-18T16:27:56;3.40;;;2.67;;
10491;SDS011;5293;51.464;-2.566;2022-12-18T16:30:26;4.00;;;2.57;;
10491;SDS011;5293;51.464;-2.566;2022-12-18T16:32:55;2.43;;;2.20;;
10491;SDS011;5293;51.464;-2.566;2022-12-18T16:35:22;9.33;;;4.03;;
10491;SDS011;5293;51.464;-2.566;2022-12-18T16:37:48;2.53;;;2.33;;
10491;SDS011;5293;51.464;-2.566;2022-12-18T16:40:15;1.80;;;1.70;;
10491;SDS011;5293;51.464;-2.566;2022-12-18T16:42:42;4.37;;;3.27;;
10491;SDS011;5293;51.464;-2.566;2022-12-18T16:45:10;2.73;;;2.50;;
10491;SDS011;5293;51.464;-2.566;2022-12-18T16:47:38;3.70;;;2.00;;
10491;SDS011;5293;51.464;-2.566;2022-12-18T16:50:04;2.83;;;2.40;;
10491;SDS011;5293;51.464;-2.566;2022-12-18T16:52:30;3.10;;;2.63;;
10491;SDS011;5293;51.464;-2.566;2022-12-18T16:54:56;5.03;;;2.90;;
10491;SDS011;5293;51.464;-2.566;2022-12-18T16:57:22;2.40;;;2.20;;
10491;SDS011;5293;51.464;-2.566;2022-12-18T16:59:48;2.97;;;2.70;;
10491;SDS011;5293;51.464;-2.566;2022-12-18T17:02:15;6.83;;;3.93;;